Time;durP1;ratioP1;P1;durP2;ratioP2;P2;SDS_P1;SDS_P2;PMS_P1;PMS_P2;Temp;Humidity;BMP_temperature;BMP_pressure;BME280_temperature;BME280_humidity;BME280_pressure;Samples;Min_cycle;Max_cycle;Signal;HPM_P1;HPM_P2
2023/04/12 00:02:09;;;;;;;19.20;17.20;;;;;;;;;;4937454;29;20032;-77
2023/04/12 00:04:35;;;;;;;18.95;17.05;;;;;;;;;;4920654;29;20103;-77
2023/04/12 00:07:01;;;;;;;18.17;16.10;;;;;;;;;;4927565;29;20087;-77
2023/04/12 00:09:29;;;;;;;21.25;16.77;;;;;;;;;;4931950;29;20016;-76
2023/04/12 00:11:58;;;;;;;19.35;16.00;;;;;;;;;;4945850;29;20507;-77
2023/04/12 00:14:26;;;;;;;17.80;15.60;;;;;;;;;;4945083;29;20062;-77
2023/04/12 00:16:51;;;;;;;19.33;17.20;;;;;;;;;;4944368;29;20271;-77
2023/04/12 00:19:16;;;;;;;18.17;15.98;;;;;;;;;;4932574;29;20011;-76
2023/04/12 00:21:42;;;;;;;17.45;15.70;;;;;;;;;;4918132;29;20221;-77
2023/04/12 00:24:07;;;;;;;19.83;16.30;;;;;;;;;;4942760;29;20015;-76
2023/04/12 00:26:33;;;;;;;16.90;15.10;;;;;;;;;;4931189;29;20023;-75
2023/04/12 00:28:58;;;;;;;18.60;15.15;;;;;;;;;;4938464;29;20031;-76
2023/04/12 00:31:23;;;;;;;17.70;15.75;;;;;;;;;;4943310;29;20114;-75
2023/04/12 00:33:49;;;;;;;17.27;15.55;;;;;;;;;;4943099;29;20051;-76
2023/04/12 00:36:14;;;;;;;17.67;15.30;;;;;;;;;;4943799;29;20394;-76
2023/04/12 00:38:41;;;;;;;19.25;16.60;;;;;;;;;;4944293;29;20034;-76
2023/04/12 00:41:06;;;;;;;17.95;15.38;;;;;;;;;;4945158;29;20081;-76
2023/04/12 00:43:31;;;;;;;18.63;16.55;;;;;;;;;;4943237;29;20023;-76
2023/04/12 00:45:57;;;;;;;19.60;15.40;;;;;;;;;;4927397;29;20055;-76
2023/04/12 00:48:23;;;;;;;17.58;15.38;;;;;;;;;;4943539;29;20074;-76
2023/04/12 00:50:48;;;;;;;18.77;16.55;;;;;;;;;;4945239;29;20135;-76
2023/04/12 00:53:14;;;;;;;19.02;16.50;;;;;;;;;;4943281;29;20401;-76
2023/04/12 00:55:40;;;;;;;16.60;14.80;;;;;;;;;;4944610;29;20031;-77
2023/04/12 00:58:06;;;;;;;18.48;16.50;;;;;;;;;;4944419;28;20081;-79
2023/04/12 01:00:32;;;;;;;19.73;16.05;;;;;;;;;;4930671;29;20441;-77
2023/04/12 01:03:01;;;;;;;19.23;16.90;;;;;;;;;;4944477;29;20073;-78
2023/04/12 01:05:28;;;;;;;18.58;15.50;;;;;;;;;;4944314;29;20028;-77
2023/04/12 01:08:03;;;;;;;19.92;17.50;;;;;;;;;;4944665;29;20033;-76
2023/04/12 01:10:29;;;;;;;20.40;16.90;;;;;;;;;;4931080;29;20027;-79
2023/04/12 01:13:00;;;;;;;21.77;18.00;;;;;;;;;;4944166;29;20023;-76
2023/04/12 01:15:25;;;;;;;20.23;16.90;;;;;;;;;;4942986;29;20047;-76
2023/04/12 01:18:04;;;;;;;18.77;15.80;;;;;;;;;;4944276;29;20074;-76
2023/04/12 01:20:32;;;;;;;20.38;18.17;;;;;;;;;;4944120;29;20153;-75
2023/04/12 01:23:19;;;;;;;19.85;17.75;;;;;;;;;;4945356;29;20070;-78
2023/04/12 01:25:59;;;;;;;19.73;17.40;;;;;;;;;;4944492;29;20023;-76
2023/04/12 01:28:34;;;;;;;22.48;18.40;;;;;;;;;;4942852;29;20019;-76
2023/04/12 01:31:03;;;;;;;23.58;19.40;;;;;;;;;;4944481;29;20434;-76
2023/04/12 01:33:30;;;;;;;21.85;19.08;;;;;;;;;;4940884;29;20105;-75
2023/04/12 01:35:57;;;;;;;23.30;19.10;;;;;;;;;;4936714;29;20039;-76
2023/04/12 01:38:23;;;;;;;24.23;18.08;;;;;;;;;;4942627;29;20031;-76
2023/04/12 01:40:49;;;;;;;22.65;19.10;;;;;;;;;;4941581;29;20012;-76
2023/04/12 01:43:15;;;;;;;23.67;19.65;;;;;;;;;;4926706;29;20031;-76
2023/04/12 01:45:40;;;;;;;21.70;17.52;;;;;;;;;;4943783;29;20015;-76
2023/04/12 01:48:06;;;;;;;19.55;16.63;;;;;;;;;;4943029;29;20493;-77
2023/04/12 01:50:50;;;;;;;21.00;18.42;;;;;;;;;;4943037;29;20031;-76
2023/04/12 01:53:18;;;;;;;21.73;18.08;;;;;;;;;;4937369;29;20567;-77
2023/04/12 01:55:47;;;;;;;23.73;18.65;;;;;;;;;;4942018;29;20477;-77
2023/04/12 01:58:16;;;;;;;22.17;18.42;;;;;;;;;;4945944;29;20110;-76
2023/04/12 02:00:42;;;;;;;23.52;18.70;;;;;;;;;;4930962;29;20106;-76
2023/04/12 02:03:07;;;;;;;26.40;19.63;;;;;;;;;;4948483;29;20412;-77
2023/04/12 02:05:33;;;;;;;22.08;18.02;;;;;;;;;;4945292;29;20022;-77
2023/04/12 02:07:58;;;;;;;25.13;19.65;;;;;;;;;;4941410;29;20884;-76
2023/04/12 02:10:28;;;;;;;31.60;20.10;;;;;;;;;;4946487;28;20038;-76
2023/04/12 02:12:54;;;;;;;;;;;;;;;;;;4932718;29;20087;-76
2023/04/12 02:15:20;;;;;;;24.20;19.67;;;;;;;;;;4948922;29;20021;-77
2023/04/12 02:17:45;;;;;;;23.05;18.52;;;;;;;;;;4949241;29;20055;-77
2023/04/12 02:20:11;;;;;;;26.02;20.55;;;;;;;;;;4949519;29;20042;-76
2023/04/12 02:22:36;;;;;;;27.58;19.90;;;;;;;;;;4930057;29;20039;-77
2023/04/12 02:25:01;;;;;;;25.85;19.80;;;;;;;;;;4930429;29;20026;-76
2023/04/12 02:27:27;;;;;;;26.40;19.08;;;;;;;;;;4943317;29;20015;-77
2023/04/12 02:29:52;;;;;;;22.25;19.23;;;;;;;;;;4938950;29;20023;-77
2023/04/12 02:32:17;;;;;;;25.15;19.08;;;;;;;;;;4948692;29;20035;-77
2023/04/12 02:34:43;;;;;;;24.77;20.08;;;;;;;;;;4930260;29;20500;-76
2023/04/12 02:37:08;;;;;;;27.23;21.88;;;;;;;;;;4948042;29;20565;-76
2023/04/12 02:39:35;;;;;;;24.02;19.60;;;;;;;;;;4928057;29;20103;-76
2023/04/12 02:42:00;;;;;;;31.50;21.80;;;;;;;;;;4946126;29;20015;-76
2023/04/12 02:44:28;;;;;;;24.92;18.90;;;;;;;;;;4947496;29;20034;-78
2023/04/12 02:46:53;;;;;;;30.30;20.50;;;;;;;;;;4945862;29;20027;-76
2023/04/12 02:49:18;;;;;;;26.05;20.00;;;;;;;;;;4943447;29;20039;-76
2023/04/12 02:51:43;;;;;;;22.10;18.33;;;;;;;;;;4946856;29;20130;-77
2023/04/12 02:54:09;;;;;;;25.38;20.17;;;;;;;;;;4942907;29;20271;-76
2023/04/12 02:56:34;;;;;;;24.35;18.38;;;;;;;;;;4948092;29;20027;-76
2023/04/12 02:59:00;;;;;;;28.45;21.50;;;;;;;;;;4947332;29;20497;-77
2023/04/12 03:01:25;;;;;;;26.88;20.63;;;;;;;;;;4947408;29;20059;-77
2023/04/12 03:03:50;;;;;;;31.92;23.08;;;;;;;;;;4947686;29;20061;-77
2023/04/12 03:06:16;;;;;;;27.83;20.83;;;;;;;;;;4946880;29;20027;-76
2023/04/12 03:08:41;;;;;;;27.98;19.13;;;;;;;;;;4948157;29;20552;-76
2023/04/12 03:11:06;;;;;;;25.60;20.25;;;;;;;;;;4923663;29;20024;-76
2023/04/12 03:13:31;;;;;;;31.23;21.42;;;;;;;;;;4939071;29;20039;-76
2023/04/12 03:15:57;;;;;;;27.60;22.77;;;;;;;;;;4930843;29;20030;-76
2023/04/12 03:18:23;;;;;;;27.40;21.45;;;;;;;;;;4947341;29;20500;-76
2023/04/12 03:20:51;;;;;;;28.58;21.50;;;;;;;;;;4945716;28;20030;-76
2023/04/12 03:23:16;;;;;;;27.80;21.60;;;;;;;;;;4946537;29;20397;-76
2023/04/12 03:25:41;;;;;;;30.67;22.08;;;;;;;;;;4946566;29;20027;-77
2023/04/12 03:28:07;;;;;;;29.33;22.35;;;;;;;;;;4909050;29;20086;-76
2023/04/12 03:30:32;;;;;;;30.73;19.98;;;;;;;;;;4938165;29;20417;-76
2023/04/12 03:32:58;;;;;;;30.67;22.65;;;;;;;;;;4945805;29;20858;-76
2023/04/12 03:35:23;;;;;;;29.05;22.38;;;;;;;;;;4944759;29;20126;-76
2023/04/12 03:37:48;;;;;;;30.20;21.83;;;;;;;;;;4928554;29;20023;-76
2023/04/12 03:40:13;;;;;;;28.90;20.52;;;;;;;;;;4941874;29;20046;-77
2023/04/12 03:42:39;;;;;;;25.48;20.90;;;;;;;;;;4946024;29;20461;-76
2023/04/12 03:45:04;;;;;;;28.40;21.02;;;;;;;;;;4946111;29;20081;-77
2023/04/12 03:47:30;;;;;;;25.85;19.77;;;;;;;;;;4945924;29;20033;-76
2023/04/12 03:49:56;;;;;;;27.95;20.98;;;;;;;;;;4945784;29;20027;-76
2023/04/12 03:52:21;;;;;;;27.92;19.67;;;;;;;;;;4914916;29;20019;-75
2023/04/12 03:54:46;;;;;;;27.02;20.48;;;;;;;;;;4928813;29;20789;-76
2023/04/12 03:57:11;;;;;;;28.77;21.20;;;;;;;;;;4945197;29;20015;-77
2023/04/12 03:59:37;;;;;;;29.35;23.10;;;;;;;;;;4945736;29;20019;-77
2023/04/12 04:02:02;;;;;;;28.90;22.80;;;;;;;;;;4945728;29;20478;-77
2023/04/12 04:04:27;;;;;;;29.80;22.98;;;;;;;;;;4928686;29;20027;-78
2023/04/12 04:06:53;;;;;;;33.42;24.98;;;;;;;;;;4934842;29;20050;-77
2023/04/12 04:09:18;;;;;;;30.92;23.42;;;;;;;;;;4930740;29;20030;-76
2023/04/12 04:11:44;;;;;;;32.20;24.02;;;;;;;;;;4944804;29;20055;-77
2023/04/12 04:14:09;;;;;;;34.38;25.10;;;;;;;;;;4945042;29;20540;-76
2023/04/12 04:16:35;;;;;;;33.15;26.15;;;;;;;;;;4944885;29;20526;-76
2023/04/12 04:19:00;;;;;;;33.17;25.35;;;;;;;;;;4944586;29;20023;-78
2023/04/12 04:21:25;;;;;;;38.10;27.60;;;;;;;;;;4946102;29;20512;-77
2023/04/12 04:23:51;;;;;;;35.10;26.20;;;;;;;;;;4920613;29;20043;-77
2023/04/12 04:26:17;;;;;;;33.70;24.38;;;;;;;;;;4928793;29;20879;-77
2023/04/12 04:28:43;;;;;;;34.00;26.08;;;;;;;;;;4928693;29;20034;-77
2023/04/12 04:31:09;;;;;;;31.85;24.67;;;;;;;;;;4945188;29;20550;-78
2023/04/12 04:33:34;;;;;;;31.95;23.55;;;;;;;;;;4919063;29;20163;-78
2023/04/12 04:36:00;;;;;;;68.22;50.17;;;;;;;;;;4945401;29;20031;-79
2023/04/12 04:38:25;;;;;;;81.85;42.38;;;;;;;;;;4911761;29;20460;-77
2023/04/12 04:40:54;;;;;;;30.73;23.75;;;;;;;;;;4934993;29;20028;-78
2023/04/12 04:43:20;;;;;;;29.73;24.35;;;;;;;;;;4941237;29;20026;-77
2023/04/12 04:45:48;;;;;;;30.65;23.02;;;;;;;;;;4937802;29;20035;-77
2023/04/12 04:48:13;;;;;;;28.75;22.30;;;;;;;;;;4935151;29;20027;-77
2023/04/12 04:50:38;;;;;;;26.83;21.75;;;;;;;;;;4942461;29;20026;-77
2023/04/12 04:53:03;;;;;;;25.10;21.27;;;;;;;;;;4941637;29;20023;-77
2023/04/12 04:55:29;;;;;;;27.47;20.63;;;;;;;;;;4935355;29;20038;-77
2023/04/12 04:57:56;;;;;;;25.80;21.02;;;;;;;;;;4943106;29;20267;-77
2023/04/12 05:00:24;;;;;;;24.23;20.10;;;;;;;;;;4942936;29;20026;-78
2023/04/12 05:02:50;;;;;;;23.73;21.13;;;;;;;;;;4943424;29;20034;-76
2023/04/12 05:05:15;;;;;;;23.60;19.80;;;;;;;;;;4936576;29;20826;-75
2023/04/12 05:07:42;;;;;;;21.17;18.85;;;;;;;;;;4931146;29;20094;-77
2023/04/12 05:10:08;;;;;;;23.70;19.92;;;;;;;;;;4924882;29;20577;-77
2023/04/12 05:12:33;;;;;;;20.08;18.08;;;;;;;;;;4916133;29;20624;-77
2023/04/12 05:14:58;;;;;;;19.52;17.52;;;;;;;;;;4925004;29;20043;-78
2023/04/12 05:17:24;;;;;;;23.67;18.05;;;;;;;;;;4943140;29;20503;-77
2023/04/12 05:19:49;;;;;;;20.00;17.90;;;;;;;;;;4942032;29;20023;-77
2023/04/12 05:22:19;;;;;;;23.17;17.80;;;;;;;;;;4936739;29;20342;-78
2023/04/12 05:24:44;;;;;;;23.75;18.40;;;;;;;;;;4934125;29;20019;-76
2023/04/12 05:27:09;;;;;;;21.48;18.20;;;;;;;;;;4942893;29;20412;-78
2023/04/12 05:29:35;;;;;;;22.50;18.83;;;;;;;;;;4942967;29;20588;-77
2023/04/12 05:32:01;;;;;;;20.92;17.67;;;;;;;;;;4942118;29;20042;-76
2023/04/12 05:34:26;;;;;;;22.33;19.00;;;;;;;;;;4922254;29;20059;-77
2023/04/12 05:36:51;;;;;;;23.55;18.98;;;;;;;;;;4922184;29;20034;-76
2023/04/12 05:39:17;;;;;;;20.15;18.13;;;;;;;;;;4932877;29;20629;-77
2023/04/12 05:41:42;;;;;;;21.52;19.00;;;;;;;;;;4937580;29;20085;-76
2023/04/12 05:44:07;;;;;;;21.02;18.02;;;;;;;;;;4943221;28;20054;-76
2023/04/12 05:46:32;;;;;;;18.38;16.48;;;;;;;;;;4945151;29;20042;-75
2023/04/12 05:48:58;;;;;;;20.33;17.10;;;;;;;;;;4941376;29;20103;-77
2023/04/12 05:51:23;;;;;;;20.60;17.60;;;;;;;;;;4937653;29;20023;-76
2023/04/12 05:53:48;;;;;;;24.50;16.70;;;;;;;;;;4928720;29;20402;-76
2023/04/12 05:56:14;;;;;;;21.35;16.70;;;;;;;;;;4937216;29;20050;-77
2023/04/12 05:58:39;;;;;;;18.05;14.63;;;;;;;;;;4910136;29;20063;-76
2023/04/12 06:01:04;;;;;;;16.67;14.67;;;;;;;;;;4940418;29;20023;-75
2023/04/12 06:03:31;;;;;;;18.05;14.82;;;;;;;;;;4937962;29;20295;-75
2023/04/12 06:05:56;;;;;;;17.80;15.00;;;;;;;;;;4945810;29;20028;-77
2023/04/12 06:08:21;;;;;;;16.35;14.43;;;;;;;;;;4940177;29;20023;-76
2023/04/12 06:10:47;;;;;;;15.25;13.65;;;;;;;;;;4935282;29;20054;-78
2023/04/12 06:13:12;;;;;;;15.32;13.02;;;;;;;;;;4944085;29;20039;-78
2023/04/12 06:15:37;;;;;;;16.27;13.23;;;;;;;;;;4929716;29;20512;-77
2023/04/12 06:18:02;;;;;;;15.57;13.18;;;;;;;;;;4936483;29;21171;-78
2023/04/12 06:20:28;;;;;;;14.80;11.68;;;;;;;;;;4935546;29;20518;-77
2023/04/12 06:22:53;;;;;;;14.13;12.73;;;;;;;;;;4934132;29;20085;-78
2023/04/12 06:25:19;;;;;;;13.57;11.70;;;;;;;;;;4945461;29;20031;-79
2023/04/12 06:27:44;;;;;;;17.08;12.80;;;;;;;;;;4925092;29;20031;-80
2023/04/12 06:30:10;;;;;;;12.77;11.57;;;;;;;;;;4942221;29;20058;-80
2023/04/12 06:32:37;;;;;;;11.75;10.55;;;;;;;;;;4924646;29;20039;-78
2023/04/12 06:35:03;;;;;;;11.50;10.27;;;;;;;;;;4939621;29;20047;-75
2023/04/12 06:37:28;;;;;;;11.02;9.85;;;;;;;;;;4944408;29;20027;-77
2023/04/12 06:39:53;;;;;;;10.25;9.35;;;;;;;;;;4935309;29;20027;-78
2023/04/12 06:42:18;;;;;;;11.25;9.80;;;;;;;;;;4936363;29;20038;-78
2023/04/12 06:44:44;;;;;;;9.63;8.75;;;;;;;;;;4939404;29;20110;-76
2023/04/12 06:47:09;;;;;;;9.80;8.48;;;;;;;;;;4917515;29;20106;-75
2023/04/12 06:49:34;;;;;;;12.10;8.77;;;;;;;;;;4936922;29;20505;-77
2023/04/12 06:52:00;;;;;;;10.85;8.85;;;;;;;;;;4938466;29;20059;-77
2023/04/12 06:54:25;;;;;;;9.05;8.25;;;;;;;;;;4942659;29;20188;-77
2023/04/12 06:56:50;;;;;;;8.18;7.38;;;;;;;;;;4937233;28;20027;-78
2023/04/12 06:59:16;;;;;;;10.48;7.45;;;;;;;;;;4935761;29;20122;-77
2023/04/12 07:01:41;;;;;;;8.40;7.30;;;;;;;;;;4938791;29;20097;-77
2023/04/12 07:04:07;;;;;;;7.20;6.50;;;;;;;;;;4943291;29;20027;-79
2023/04/12 07:06:32;;;;;;;11.00;6.68;;;;;;;;;;4944217;29;20042;-77
2023/04/12 07:08:57;;;;;;;7.57;6.90;;;;;;;;;;4941443;29;20610;-80
2023/04/12 07:11:23;;;;;;;8.07;7.05;;;;;;;;;;4940472;29;20032;-78
2023/04/12 07:13:48;;;;;;;7.90;6.60;;;;;;;;;;4940575;29;20485;-78
2023/04/12 07:16:14;;;;;;;8.82;5.85;;;;;;;;;;4945864;29;20821;-79
2023/04/12 07:18:39;;;;;;;6.75;5.97;;;;;;;;;;4931821;29;20037;-79
2023/04/12 07:21:05;;;;;;;6.15;5.63;;;;;;;;;;4946296;29;20505;-79
2023/04/12 07:23:30;;;;;;;7.25;6.47;;;;;;;;;;4939995;29;20509;-79
2023/04/12 07:25:59;;;;;;;6.28;5.43;;;;;;;;;;4941997;29;20560;-78
2023/04/12 07:28:25;;;;;;;6.47;5.32;;;;;;;;;;4940240;29;20027;-77
2023/04/12 07:30:50;;;;;;;7.97;5.30;;;;;;;;;;4921103;29;20035;-78
2023/04/12 07:33:15;;;;;;;5.70;5.20;;;;;;;;;;4935373;29;20039;-78
2023/04/12 07:35:41;;;;;;;4.93;4.53;;;;;;;;;;4939024;29;20051;-77
2023/04/12 07:38:06;;;;;;;5.18;4.35;;;;;;;;;;4939671;29;20028;-79
2023/04/12 07:40:32;;;;;;;4.47;4.07;;;;;;;;;;4940197;29;20030;-79
2023/04/12 07:42:57;;;;;;;4.93;4.03;;;;;;;;;;4942648;29;20167;-78
2023/04/12 07:45:22;;;;;;;4.67;4.17;;;;;;;;;;4946799;29;20023;-79
2023/04/12 07:47:47;;;;;;;4.35;3.95;;;;;;;;;;4939046;29;20871;-76
2023/04/12 07:50:13;;;;;;;5.05;3.47;;;;;;;;;;4944964;29;20050;-80
2023/04/12 07:52:38;;;;;;;4.03;3.55;;;;;;;;;;4944776;29;20031;-81
2023/04/12 07:55:04;;;;;;;4.60;4.18;;;;;;;;;;4934844;29;20031;-75
2023/04/12 07:57:30;;;;;;;4.25;3.95;;;;;;;;;;4929965;29;20063;-76
2023/04/12 07:59:55;;;;;;;5.00;4.45;;;;;;;;;;4942513;29;20023;-79
2023/04/12 08:02:23;;;;;;;5.70;3.80;;;;;;;;;;4948586;29;20505;-77
2023/04/12 08:04:52;;;;;;;5.38;3.75;;;;;;;;;;4945981;29;20042;-78
2023/04/12 08:07:20;;;;;;;3.80;3.50;;;;;;;;;;4941433;28;20512;-76
2023/04/12 08:09:46;;;;;;;3.50;3.20;;;;;;;;;;4941023;29;20024;-76
2023/04/12 08:12:11;;;;;;;4.88;3.80;;;;;;;;;;4938268;29;20090;-81
2023/04/12 08:14:37;;;;;;;3.72;3.50;;;;;;;;;;4938508;29;20027;-78
2023/04/12 08:17:02;;;;;;;3.50;3.20;;;;;;;;;;4932013;29;20027;-78
2023/04/12 08:19:27;;;;;;;3.05;2.85;;;;;;;;;;4945289;29;20023;-77
2023/04/12 08:21:53;;;;;;;4.20;3.08;;;;;;;;;;4947233;29;20035;-81
2023/04/12 08:24:18;;;;;;;4.05;3.03;;;;;;;;;;4941533;29;20023;-76
2023/04/12 08:26:44;;;;;;;3.80;3.05;;;;;;;;;;4920998;29;20481;-75
2023/04/12 08:29:10;;;;;;;3.28;3.05;;;;;;;;;;4926128;29;20078;-76
2023/04/12 08:31:35;;;;;;;2.58;2.30;;;;;;;;;;4931208;29;20082;-76
2023/04/12 08:34:01;;;;;;;6.47;2.40;;;;;;;;;;4914932;29;20047;-78
2023/04/12 08:36:26;;;;;;;2.00;1.90;;;;;;;;;;4933479;29;20040;-75
2023/04/12 08:38:54;;;;;;;3.00;2.70;;;;;;;;;;4940698;29;20310;-75
2023/04/12 08:41:20;;;;;;;2.95;2.35;;;;;;;;;;4917969;29;20034;-75
2023/04/12 08:43:46;;;;;;;2.53;2.33;;;;;;;;;;4936355;29;20286;-75
2023/04/12 08:46:14;;;;;;;3.58;2.40;;;;;;;;;;4934495;29;20032;-76
2023/04/12 08:48:40;;;;;;;2.60;2.40;;;;;;;;;;4928963;29;20020;-75
2023/04/12 08:51:07;;;;;;;2.20;2.00;;;;;;;;;;4942379;29;20046;-79
2023/04/12 08:53:32;;;;;;;3.38;1.98;;;;;;;;;;4927685;29;20122;-79
2023/04/12 08:55:57;;;;;;;4.43;1.70;;;;;;;;;;4934309;29;20577;-78
2023/04/12 08:58:23;;;;;;;6.63;2.00;;;;;;;;;;4916831;29;20035;-78
2023/04/12 09:00:49;;;;;;;4.40;1.75;;;;;;;;;;4939421;29;20777;-79
2023/04/12 09:03:14;;;;;;;2.58;1.80;;;;;;;;;;4947096;29;20031;-78
2023/04/12 09:05:40;;;;;;;2.97;1.73;;;;;;;;;;4942646;29;20185;-79
2023/04/12 09:08:06;;;;;;;2.28;1.75;;;;;;;;;;4939494;29;20038;-77
2023/04/12 09:10:32;;;;;;;2.13;1.63;;;;;;;;;;4938376;29;20063;-77
2023/04/12 09:12:58;;;;;;;1.90;1.80;;;;;;;;;;4938734;29;20031;-76
2023/04/12 09:15:24;;;;;;;2.00;1.60;;;;;;;;;;4935921;29;20046;-76
2023/04/12 09:18:01;;;;;;;2.10;1.58;;;;;;;;;;4936256;29;20030;-76
2023/04/12 09:20:27;;;;;;;3.33;1.67;;;;;;;;;;4941685;29;20470;-77
2023/04/12 09:22:54;;;;;;;2.75;1.80;;;;;;;;;;4920226;29;20030;-76
2023/04/12 09:25:35;;;;;;;2.70;1.83;;;;;;;;;;4943552;29;20086;-79
2023/04/12 09:28:00;;;;;;;3.50;1.27;;;;;;;;;;4940038;29;20122;-74
2023/04/12 09:30:25;;;;;;;2.90;1.45;;;;;;;;;;4935783;29;20055;-79
2023/04/12 09:32:52;;;;;;;3.17;1.35;;;;;;;;;;4941474;29;20068;-76
2023/04/12 09:35:17;;;;;;;2.05;1.45;;;;;;;;;;4936215;29;20071;-75
2023/04/12 09:37:42;;;;;;;4.68;1.45;;;;;;;;;;4930726;29;20457;-75
2023/04/12 09:40:08;;;;;;;2.45;1.00;;;;;;;;;;4940777;29;20037;-77
2023/04/12 09:42:35;;;;;;;5.43;1.55;;;;;;;;;;4943511;29;20023;-77
2023/04/12 09:45:14;;;;;;;2.80;1.95;;;;;;;;;;4944414;29;20074;-75
2023/04/12 09:47:39;;;;;;;5.70;2.42;;;;;;;;;;4943645;29;20011;-75
2023/04/12 09:50:06;;;;;;;1.80;1.52;;;;;;;;;;4925860;29;20113;-75
2023/04/12 09:52:38;;;;;;;3.47;2.38;;;;;;;;;;4930478;29;21042;-76
2023/04/12 09:55:09;;;;;;;2.65;2.45;;;;;;;;;;4914232;29;20158;-75
2023/04/12 09:57:42;;;;;;;3.30;3.00;;;;;;;;;;4917199;29;20086;-76
2023/04/12 10:00:26;;;;;;;3.92;3.55;;;;;;;;;;4938973;29;20069;-80
2023/04/12 10:02:52;;;;;;;3.20;1.30;;;;;;;;;;4924642;29;20026;-77
2023/04/12 10:05:19;;;;;;;2.60;2.40;;;;;;;;;;4934376;29;20039;-76
2023/04/12 10:07:45;;;;;;;1.33;0.90;;;;;;;;;;4941903;29;20051;-77
2023/04/12 10:10:14;;;;;;;1.63;1.10;;;;;;;;;;4945418;29;20023;-77
2023/04/12 10:12:41;;;;;;;3.13;1.45;;;;;;;;;;4941330;28;20046;-77
2023/04/12 10:15:11;;;;;;;4.25;2.70;;;;;;;;;;4941611;29;20067;-75
2023/04/12 10:17:40;;;;;;;2.35;1.35;;;;;;;;;;4937776;29;20094;-77
2023/04/12 10:20:06;;;;;;;2.45;1.30;;;;;;;;;;4935303;29;20023;-77
2023/04/12 10:22:31;;;;;;;4.45;1.40;;;;;;;;;;4932114;29;20023;-76
2023/04/12 10:24:58;;;;;;;2.45;1.38;;;;;;;;;;4936001;29;20031;-75
2023/04/12 10:27:24;;;;;;;3.08;1.00;;;;;;;;;;4934110;29;20032;-75
2023/04/12 10:29:50;;;;;;;5.28;1.00;;;;;;;;;;4929297;29;20059;-76
2023/04/12 10:32:19;;;;;;;1.83;1.33;;;;;;;;;;4943692;29;20073;-76
2023/04/12 10:34:49;;;;;;;1.25;1.15;;;;;;;;;;4940820;29;20055;-78
2023/04/12 10:37:14;;;;;;;;;;;;;;;;;;4939535;29;20404;-76
2023/04/12 10:39:41;;;;;;;2.13;1.08;;;;;;;;;;4941166;29;19918;-82
2023/04/12 10:42:22;;;;;;;4.10;1.13;;;;;;;;;;4936727;29;20643;-76
2023/04/12 10:44:49;;;;;;;5.82;0.75;;;;;;;;;;4944413;29;20498;-80
2023/04/12 10:47:15;;;;;;;2.33;1.10;;;;;;;;;;4945221;29;20035;-75
2023/04/12 10:49:40;;;;;;;1.83;0.90;;;;;;;;;;4947528;29;20188;-76
2023/04/12 10:52:09;;;;;;;2.95;0.80;;;;;;;;;;4926123;29;20023;-75
2023/04/12 10:54:35;;;;;;;1.52;0.70;;;;;;;;;;4945939;29;20386;-79
2023/04/12 10:57:01;;;;;;;3.85;1.00;;;;;;;;;;4943637;29;20050;-75
2023/04/12 10:59:46;;;;;;;1.80;0.80;;;;;;;;;;4941931;29;20032;-76
2023/04/12 11:02:12;;;;;;;1.02;0.57;;;;;;;;;;4936346;29;20030;-75
2023/04/12 11:04:58;;;;;;;2.13;0.70;;;;;;;;;;4915141;29;20023;-76
2023/04/12 11:07:37;;;;;;;3.80;1.00;;;;;;;;;;4936749;29;20063;-77
2023/04/12 11:10:03;;;;;;;5.13;0.63;;;;;;;;;;4936476;29;20556;-76
2023/04/12 11:12:28;;;;;;;3.05;0.60;;;;;;;;;;4934438;29;20144;-77
2023/04/12 11:14:58;;;;;;;1.85;0.55;;;;;;;;;;4925338;29;20019;-76
2023/04/12 11:17:24;;;;;;;1.52;0.80;;;;;;;;;;4933065;29;20068;-79
2023/04/12 11:19:56;;;;;;;0.60;0.45;;;;;;;;;;4941257;29;20028;-76
2023/04/12 11:22:23;;;;;;;1.15;0.70;;;;;;;;;;4936768;29;20408;-76
2023/04/12 11:24:50;;;;;;;2.00;0.70;;;;;;;;;;4940017;29;20031;-78
2023/04/12 11:27:15;;;;;;;1.55;0.80;;;;;;;;;;4935904;29;20027;-76
2023/04/12 11:29:42;;;;;;;1.05;0.30;;;;;;;;;;4934798;29;20509;-78
2023/04/12 11:32:13;;;;;;;3.55;0.80;;;;;;;;;;4935316;29;20034;-76
2023/04/12 11:34:41;;;;;;;1.00;0.57;;;;;;;;;;4931649;29;20054;-76
2023/04/12 11:37:07;;;;;;;1.02;0.77;;;;;;;;;;4936241;29;20039;-77
2023/04/12 11:39:33;;;;;;;3.90;0.95;;;;;;;;;;4929019;29;20517;-76
2023/04/12 11:41:58;;;;;;;4.88;0.73;;;;;;;;;;4943334;28;20030;-75
2023/04/12 11:44:24;;;;;;;1.38;0.70;;;;;;;;;;4940610;29;20058;-78
2023/04/12 11:46:50;;;;;;;2.60;0.63;;;;;;;;;;4943188;29;20027;-77
2023/04/12 11:49:16;;;;;;;1.48;0.70;;;;;;;;;;4941215;29;20034;-78
2023/04/12 11:51:42;;;;;;;1.58;0.82;;;;;;;;;;4942073;29;20559;-78
2023/04/12 11:54:07;;;;;;;2.33;0.85;;;;;;;;;;4937257;29;20029;-78
2023/04/12 11:56:32;;;;;;;2.47;0.80;;;;;;;;;;4940680;29;20050;-78
2023/04/12 11:58:59;;;;;;;1.10;0.63;;;;;;;;;;4930643;29;20049;-81
2023/04/12 12:01:26;;;;;;;2.00;0.68;;;;;;;;;;4941062;29;20631;-77
2023/04/12 12:03:52;;;;;;;2.13;0.88;;;;;;;;;;4936808;29;20122;-78
2023/04/12 12:06:17;;;;;;;4.40;0.63;;;;;;;;;;4933595;29;20442;-75
2023/04/12 12:08:43;;;;;;;1.83;0.70;;;;;;;;;;4940561;29;20011;-76
2023/04/12 12:11:08;;;;;;;1.00;0.50;;;;;;;;;;4942362;29;20456;-78
2023/04/12 12:13:50;;;;;;;6.38;0.60;;;;;;;;;;4938202;29;20546;-76
2023/04/12 12:16:16;;;;;;;1.20;0.60;;;;;;;;;;4935380;29;20035;-78
2023/04/12 12:18:45;;;;;;;1.05;0.73;;;;;;;;;;4929084;29;20501;-76
2023/04/12 12:21:11;;;;;;;4.55;0.70;;;;;;;;;;4936980;29;20028;-76
2023/04/12 12:23:37;;;;;;;0.63;0.45;;;;;;;;;;4933050;29;20031;-74
2023/04/12 12:26:04;;;;;;;3.05;0.60;;;;;;;;;;4928197;29;20027;-75
2023/04/12 12:28:29;;;;;;;0.80;0.60;;;;;;;;;;4932962;29;20095;-80
2023/04/12 12:30:58;;;;;;;0.80;0.60;;;;;;;;;;4923880;29;20019;-76
2023/04/12 12:33:23;;;;;;;1.08;0.55;;;;;;;;;;4929251;29;20109;-75
2023/04/12 12:35:58;;;;;;;0.68;0.55;;;;;;;;;;4913585;29;20051;-76
2023/04/12 12:38:23;;;;;;;1.70;0.60;;;;;;;;;;4935823;29;20676;-76
2023/04/12 12:40:49;;;;;;;1.75;0.68;;;;;;;;;;4926908;29;20027;-80
2023/04/12 12:43:18;;;;;;;1.08;0.60;;;;;;;;;;4928635;29;20032;-77
2023/04/12 12:45:43;;;;;;;;;;;;;;;;;;4931708;29;20474;-77
2023/04/12 12:48:10;;;;;;;1.40;0.75;;;;;;;;;;4932757;29;19911;-76
2023/04/12 12:50:36;;;;;;;5.18;0.75;;;;;;;;;;4928039;29;20102;-78
2023/04/12 12:53:02;;;;;;;0.70;0.50;;;;;;;;;;4932045;28;20023;-77
2023/04/12 12:55:28;;;;;;;3.60;0.75;;;;;;;;;;4922465;29;20488;-80
2023/04/12 12:57:54;;;;;;;1.35;0.63;;;;;;;;;;4928096;29;20030;-76
2023/04/12 13:00:21;;;;;;;2.25;0.80;;;;;;;;;;4926739;29;20035;-78
2023/04/12 13:02:47;;;;;;;2.05;0.57;;;;;;;;;;4933129;29;20023;-76
2023/04/12 13:05:12;;;;;;;1.23;0.50;;;;;;;;;;4932909;29;20090;-79
2023/04/12 13:07:38;;;;;;;1.08;0.80;;;;;;;;;;4931822;29;20071;-77
2023/04/12 13:10:04;;;;;;;3.20;0.75;;;;;;;;;;4932208;29;20059;-77
2023/04/12 13:12:30;;;;;;;1.52;0.88;;;;;;;;;;4942072;29;20477;-78
2023/04/12 13:14:55;;;;;;;0.47;0.40;;;;;;;;;;4933445;29;20024;-77
2023/04/12 13:17:21;;;;;;;4.07;0.90;;;;;;;;;;4938678;29;20018;-78
2023/04/12 13:19:46;;;;;;;1.10;0.50;;;;;;;;;;4942821;29;21004;-78
2023/04/12 13:22:15;;;;;;;3.88;0.80;;;;;;;;;;4924855;29;20035;-79
2023/04/12 13:24:41;;;;;;;1.83;0.57;;;;;;;;;;4930390;29;20030;-76
2023/04/12 13:27:07;;;;;;;3.53;0.70;;;;;;;;;;4932600;29;20095;-78
2023/04/12 13:29:32;;;;;;;2.22;0.70;;;;;;;;;;4946151;29;20061;-76
2023/04/12 13:31:57;;;;;;;4.07;0.85;;;;;;;;;;4937326;29;20019;-79
2023/04/12 13:34:23;;;;;;;1.85;0.70;;;;;;;;;;4941128;29;20062;-80
2023/04/12 13:36:48;;;;;;;0.55;0.55;;;;;;;;;;4942429;29;20031;-79
2023/04/12 13:39:14;;;;;;;1.23;0.80;;;;;;;;;;4931617;29;20543;-79
2023/04/12 13:41:39;;;;;;;0.70;0.43;;;;;;;;;;4941126;29;20255;-79
2023/04/12 13:44:04;;;;;;;0.93;0.60;;;;;;;;;;4921050;29;20030;-79
2023/04/12 13:46:30;;;;;;;1.67;0.65;;;;;;;;;;4936609;29;20148;-77
2023/04/12 13:48:55;;;;;;;0.57;0.47;;;;;;;;;;4930950;29;20031;-80
2023/04/12 13:51:20;;;;;;;1.25;0.65;;;;;;;;;;4932751;29;20075;-82
2023/04/12 13:53:46;;;;;;;1.10;0.52;;;;;;;;;;4932467;29;20035;-77
2023/04/12 13:56:11;;;;;;;1.85;0.60;;;;;;;;;;4930184;29;20654;-81
2023/04/12 13:58:38;;;;;;;0.80;0.70;;;;;;;;;;4913370;29;20086;-80
2023/04/12 14:01:05;;;;;;;0.55;0.47;;;;;;;;;;4940499;29;20444;-79
2023/04/12 14:03:30;;;;;;;1.42;0.60;;;;;;;;;;4930002;29;20095;-76
2023/04/12 14:05:55;;;;;;;0.95;0.95;;;;;;;;;;4930773;29;20040;-77
2023/04/12 14:08:20;;;;;;;2.10;0.60;;;;;;;;;;4948569;29;20038;-80
2023/04/12 14:10:46;;;;;;;2.47;0.60;;;;;;;;;;4946736;29;20012;-78
2023/04/12 14:13:11;;;;;;;1.45;0.63;;;;;;;;;;4939542;29;20868;-79
2023/04/12 14:15:37;;;;;;;1.90;0.63;;;;;;;;;;4935833;29;20028;-80
2023/04/12 14:18:02;;;;;;;1.02;0.60;;;;;;;;;;4936253;29;20486;-78
2023/04/12 14:20:27;;;;;;;5.18;0.80;;;;;;;;;;4931033;29;20474;-78
2023/04/12 14:22:53;;;;;;;1.90;0.80;;;;;;;;;;4947875;29;20046;-79
2023/04/12 14:25:18;;;;;;;1.02;0.52;;;;;;;;;;4951610;29;20019;-78
2023/04/12 14:27:43;;;;;;;1.42;0.57;;;;;;;;;;4941375;29;20019;-79